Tourville, Canada
Current Conditions -  °F | °C
As of 11:42 AM on Friday 24 Oct 2014 (Local Time) from CYQB Reporting Station
Rain Showers Rain Showers  
Wind Chill: 43°   Ceiling: 9000
Heat Index: 46°   Visibility: 30mi
Dew Point: 34°   Wind: 7mph
Humidity: 62%   Direction: 40°NE
Pressure: 29.87"   Gusts: NA
Location:  47.1°N, 69.98°W
Report Text: CYQB 241542Z 04006KT 30SM -SHRA FEW002 SCT080 BKN090 08/01 A2987 RMK SF1AC3AC4 SF TR SLP116
Loading
Personal Weather Stations






























Interactive Weather Map
Tropical Storm Tracking
New forecast layout! Learn more

10-Day Weather Forecast

Advertisements
Track Severe Weather on mobile